Time;durP1;ratioP1;P1;durP2;ratioP2;P2;SDS_P1;SDS_P2;PMS_P1;PMS_P2;Temp;Humidity;BMP_temperature;BMP_pressure;BME280_temperature;BME280_humidity;BME280_pressure;Samples;Min_cycle;Max_cycle;Signal;HPM_P1;HPM_P2
2021/10/28 00:12:54;;;;;;;11.80;8.53;;;12.80;56.60;;;;;;5044304;28;20824;-50
2021/10/28 00:15:28;;;;;;;12.13;8.33;;;12.60;57.80;;;;;;5043191;28;20549;-48
2021/10/28 00:20:29;;;;;;;10.13;8.20;;;12.10;59.90;;;;;;5042844;28;20479;-49
2021/10/28 00:22:56;;;;;;;17.20;12.27;;;12.10;60.10;;;;;;5039668;28;20431;-53
2021/10/28 00:25:22;;;;;;;16.03;11.00;;;12.10;60.30;;;;;;5040121;28;20536;-48
2021/10/28 00:27:51;;;;;;;13.77;10.13;;;12.10;60.80;;;;;;5046328;28;20450;-49
2021/10/28 00:30:18;;;;;;;16.13;11.33;;;12.10;61.40;;;;;;5046048;28;20438;-49
2021/10/28 00:32:48;;;;;;;11.73;10.50;;;12.00;62.30;;;;;;5040778;28;20443;-49
2021/10/28 00:35:13;;;;;;;14.37;10.93;;;11.60;63.90;;;;;;5040606;28;20445;-52
2021/10/28 00:37:39;;;;;;;13.90;11.27;;;11.40;65.10;;;;;;5041066;28;20794;-48
2021/10/28 00:40:07;;;;;;;14.40;11.00;;;11.30;65.70;;;;;;5040650;28;20204;-50
2021/10/28 00:42:34;;;;;;;13.93;11.87;;;11.30;66.40;;;;;;5045302;28;20469;-51
2021/10/28 00:45:00;;;;;;;16.43;11.00;;;11.30;65.40;;;;;;5043250;28;21200;-50
2021/10/28 00:47:26;;;;;;;15.13;11.20;;;11.40;65.30;;;;;;5042824;28;20814;-52
2021/10/28 00:49:52;;;;;;;16.90;11.47;;;11.50;64.60;;;;;;5042400;28;20459;-49
2021/10/28 00:52:18;;;;;;;15.30;10.73;;;11.60;64.60;;;;;;5044832;28;20451;-49
2021/10/28 00:54:44;;;;;;;15.53;11.33;;;11.60;64.30;;;;;;5043142;28;20956;-52
2021/10/28 00:57:10;;;;;;;12.43;10.90;;;11.70;63.90;;;;;;5039500;28;20197;-51
2021/10/28 00:59:36;;;;;;;12.00;10.17;;;11.80;63.30;;;;;;5048238;28;20275;-51
2021/10/28 01:02:02;;;;;;;16.47;12.47;;;11.80;62.90;;;;;;5047144;28;22661;-49
2021/10/28 01:04:28;;;;;;;12.57;11.27;;;11.70;62.40;;;;;;5043106;28;20495;-51
2021/10/28 01:06:55;;;;;;;12.53;10.23;;;11.80;62.60;;;;;;5048305;28;20446;-50
2021/10/28 01:09:23;;;;;;;13.63;11.43;;;11.90;63.20;;;;;;5049049;28;22081;-48
2021/10/28 01:11:53;;;;;;;13.60;11.83;;;11.70;62.60;;;;;;5050923;28;20587;-48
2021/10/28 01:14:21;;;;;;;15.87;11.80;;;11.40;63.80;;;;;;5046842;28;20449;-52
2021/10/28 01:16:47;;;;;;;15.13;11.80;;;11.20;64.70;;;;;;5046421;28;20450;-51
2021/10/28 01:19:14;;;;;;;16.10;12.40;;;11.20;65.80;;;;;;5037925;28;20588;-52
2021/10/28 01:21:39;;;;;;;17.87;12.27;;;11.20;65.50;;;;;;5040954;28;20447;-53
2021/10/28 01:24:05;;;;;;;15.60;13.23;;;11.20;65.00;;;;;;5045782;28;20447;-48
2021/10/28 01:26:31;;;;;;;15.63;13.03;;;11.20;65.50;;;;;;5045052;28;20660;-51
2021/10/28 01:28:59;;;;;;;18.20;14.20;;;11.10;65.90;;;;;;5041251;28;20200;-49
2021/10/28 01:31:27;;;;;;;17.60;13.47;;;11.20;66.00;;;;;;5053664;28;20193;-49
2021/10/28 01:33:54;;;;;;;14.50;11.77;;;11.30;65.70;;;;;;5046831;28;20521;-52
2021/10/28 01:36:22;;;;;;;15.70;11.60;;;11.30;64.70;;;;;;5043962;28;20480;-50
2021/10/28 01:38:48;;;;;;;16.20;11.77;;;11.30;64.70;;;;;;5038270;28;20442;-49
2021/10/28 01:41:15;;;;;;;19.20;12.80;;;11.10;65.10;;;;;;5042396;28;20529;-51
2021/10/28 01:43:42;;;;;;;14.43;12.27;;;10.90;65.80;;;;;;5046297;28;20451;-49
2021/10/28 01:46:09;;;;;;;14.07;11.23;;;10.90;66.50;;;;;;5047192;28;20502;-51
2021/10/28 01:48:39;;;;;;;17.27;12.57;;;11.00;66.00;;;;;;5042768;28;20489;-51
2021/10/28 01:51:05;;;;;;;17.23;12.40;;;11.00;65.40;;;;;;5040833;28;20450;-50
2021/10/28 01:53:31;;;;;;;13.93;12.07;;;11.10;65.10;;;;;;5044960;28;20439;-50
2021/10/28 01:55:56;;;;;;;16.17;12.30;;;11.20;64.60;;;;;;5049515;28;20196;-52
2021/10/28 01:58:22;;;;;;;15.07;12.10;;;11.40;65.10;;;;;;5042903;28;20598;-48
2021/10/28 02:00:49;;;;;;;22.83;14.97;;;11.30;64.40;;;;;;5043635;28;20199;-52
2021/10/28 02:03:15;;;;;;;22.10;15.43;;;11.30;64.50;;;;;;5045234;28;20448;-48
2021/10/28 02:05:41;;;;;;;14.30;12.80;;;11.10;65.10;;;;;;5048112;28;20506;-50
2021/10/28 02:08:06;;;;;;;23.13;11.37;;;11.20;65.00;;;;;;5044092;28;20242;-49
2021/10/28 02:10:32;;;;;;;15.30;13.33;;;10.90;65.40;;;;;;5043261;28;20204;-52
2021/10/28 02:12:58;;;;;;;14.53;11.57;;;11.00;66.10;;;;;;5040412;28;20244;-50
2021/10/28 02:15:25;;;;;;;16.07;12.77;;;11.00;65.60;;;;;;5042949;28;20308;-50
2021/10/28 02:17:51;;;;;;;17.77;13.50;;;11.00;66.10;;;;;;5035884;28;20200;-50
2021/10/28 02:20:17;;;;;;;15.80;13.60;;;10.90;66.60;;;;;;5045525;28;20849;-49
2021/10/28 02:22:44;;;;;;;16.00;12.93;;;11.00;66.60;;;;;;5039128;28;20459;-49
2021/10/28 02:25:11;;;;;;;16.70;13.83;;;11.10;66.10;;;;;;5065186;28;20486;-52
2021/10/28 02:27:38;;;;;;;14.27;10.53;;;11.20;65.70;;;;;;5042402;28;20868;-50
2021/10/28 02:30:05;;;;;;;16.67;11.83;;;11.40;64.40;;;;;;5038447;28;20892;-50
2021/10/28 02:32:30;;;;;;;15.87;11.70;;;11.60;62.20;;;;;;5037643;28;20471;-49
2021/10/28 02:34:56;;;;;;;17.13;12.67;;;11.30;62.30;;;;;;5040251;28;20467;-52
2021/10/28 02:37:22;;;;;;;13.10;11.23;;;11.40;63.10;;;;;;5047744;28;20628;-49
2021/10/28 02:39:48;;;;;;;13.20;10.20;;;11.60;62.30;;;;;;5044886;28;20203;-52
2021/10/28 02:42:15;;;;;;;14.37;11.43;;;11.70;61.00;;;;;;5042655;28;20611;-52
2021/10/28 02:44:41;;;;;;;13.40;9.93;;;11.90;60.00;;;;;;5038010;28;21141;-52
2021/10/28 02:47:07;;;;;;;14.37;9.87;;;11.90;59.30;;;;;;5041609;28;20454;-51
2021/10/28 02:49:33;;;;;;;13.00;10.03;;;11.90;58.60;;;;;;5042077;28;20807;-52
2021/10/28 02:51:58;;;;;;;13.57;10.90;;;11.90;58.30;;;;;;5043939;28;20643;-53
2021/10/28 02:54:24;;;;;;;14.40;11.20;;;11.80;58.40;;;;;;5042485;28;20201;-52
2021/10/28 02:56:50;;;;;;;13.27;10.53;;;11.70;58.70;;;;;;5043463;28;20255;-49
2021/10/28 02:59:16;;;;;;;12.37;10.17;;;11.60;59.00;;;;;;5039297;28;20184;-53
2021/10/28 03:01:46;;;;;;;14.20;10.37;;;11.70;59.20;;;;;;5046841;28;20524;-52
2021/10/28 03:04:19;;;;;;;13.40;10.67;;;11.50;59.40;;;;;;5039297;28;20236;-50
2021/10/28 03:06:46;;;;;;;11.10;9.90;;;11.50;59.40;;;;;;5046470;28;20496;-52
2021/10/28 03:09:17;;;;;;;14.10;11.07;;;11.60;59.50;;;;;;5049635;28;20526;-49
2021/10/28 03:11:43;;;;;;;12.87;11.40;;;11.60;59.20;;;;;;5052994;28;20439;-53
2021/10/28 03:14:11;;;;;;;13.63;10.93;;;11.60;59.30;;;;;;5043579;28;20455;-51
2021/10/28 03:27:33;;;;;;;14.13;9.27;;;11.40;60.20;;;;;;5043952;28;20469;-49
2021/10/28 03:29:59;;;;;;;15.33;9.80;;;11.50;59.40;;;;;;5043267;28;20440;-50
2021/10/28 03:32:26;;;;;;;13.90;10.80;;;11.40;58.90;;;;;;5042065;28;20200;-51
2021/10/28 03:34:53;;;;;;;13.67;9.93;;;11.40;59.00;;;;;;5049984;28;20227;-53
2021/10/28 03:37:24;;;;;;;17.30;10.83;;;11.40;59.00;;;;;;5051123;28;20446;-52
2021/10/28 04:06:07;;;;;;;14.03;10.67;;;11.20;59.10;;;;;;5039065;28;20253;-50
2021/10/28 04:30:25;;;;;;;15.70;11.73;;;11.30;59.30;;;;;;5051648;28;20439;-52
2021/10/28 04:32:53;;;;;;;18.73;12.67;;;11.30;59.10;;;;;;5064310;28;20503;-52
2021/10/28 04:35:19;;;;;;;15.37;11.10;;;11.10;60.00;;;;;;5057910;28;20482;-48
2021/10/28 04:37:46;;;;;;;12.17;9.63;;;11.20;60.00;;;;;;5052759;28;20477;-48
2021/10/28 04:40:13;;;;;;;13.53;10.53;;;11.20;59.10;;;;;;5052286;28;20461;-51
2021/10/28 04:42:40;;;;;;;14.00;11.23;;;10.50;59.20;;;;;;5047421;28;20427;-48
2021/10/28 04:45:06;;;;;;;12.33;10.20;;;10.40;60.90;;;;;;5052151;28;20482;-52
2021/10/28 04:47:32;;;;;;;13.10;9.87;;;10.40;60.90;;;;;;5042848;28;20973;-50
2021/10/28 04:49:57;;;;;;;14.93;10.17;;;10.50;60.60;;;;;;5038932;28;20514;-50
2021/10/28 04:52:23;;;;;;;12.97;10.43;;;10.40;60.20;;;;;;5040127;28;20281;-48
2021/10/28 04:54:49;;;;;;;15.40;12.00;;;10.40;60.40;;;;;;5043389;28;20225;-50
2021/10/28 04:57:15;;;;;;;16.37;11.27;;;10.50;60.20;;;;;;5043191;28;20439;-50
2021/10/28 04:59:41;;;;;;;17.67;11.57;;;10.60;60.00;;;;;;5049447;28;20444;-50
2021/10/28 05:02:07;;;;;;;15.00;10.47;;;10.50;60.20;;;;;;5041775;28;20197;-52
2021/10/28 05:04:32;;;;;;;14.70;11.53;;;10.40;60.90;;;;;;5041254;28;20482;-49
2021/10/28 05:06:58;;;;;;;24.77;16.60;;;10.30;61.80;;;;;;5052075;28;20282;-53
2021/10/28 05:09:29;;;;;;;28.37;18.13;;;10.20;62.10;;;;;;5039559;28;20194;-49
2021/10/28 05:11:55;;;;;;;22.83;15.00;;;10.30;62.00;;;;;;5041032;28;20283;-48
2021/10/28 05:14:21;;;;;;;16.17;12.70;;;10.40;61.80;;;;;;5049531;28;21185;-50
2021/10/28 05:16:47;;;;;;;15.47;11.50;;;10.50;61.20;;;;;;5043870;28;20492;-48
2021/10/28 05:19:13;;;;;;;17.13;12.27;;;10.70;62.20;;;;;;5051098;28;20865;-48
2021/10/28 05:21:39;;;;;;;15.33;11.50;;;11.10;63.80;;;;;;5035349;28;20432;-53
2021/10/28 05:24:04;;;;;;;19.77;13.60;;;11.30;62.90;;;;;;5050602;28;20185;-49
2021/10/28 05:26:30;;;;;;;17.80;13.13;;;11.60;61.20;;;;;;5044701;28;20321;-49
2021/10/28 05:28:56;;;;;;;16.47;12.07;;;11.80;59.30;;;;;;5041638;28;20192;-53
2021/10/28 05:31:22;;;;;;;14.90;12.27;;;11.90;57.90;;;;;;5036271;28;20197;-49
2021/10/28 05:33:48;;;;;;;16.07;12.87;;;11.90;57.00;;;;;;5048152;28;20197;-50
2021/10/28 05:36:14;;;;;;;14.73;11.77;;;11.90;56.40;;;;;;5042850;28;20431;-52
2021/10/28 05:38:40;;;;;;;17.63;13.20;;;11.90;56.00;;;;;;5052172;28;20442;-53
2021/10/28 05:41:05;;;;;;;15.90;12.57;;;11.90;56.00;;;;;;5049270;28;20193;-51
2021/10/28 05:43:32;;;;;;;17.27;12.93;;;12.00;56.10;;;;;;5047278;28;20211;-51
2021/10/28 05:45:58;;;;;;;17.67;12.93;;;12.10;56.00;;;;;;5049200;28;20235;-53
2021/10/28 05:48:23;;;;;;;17.00;12.70;;;12.20;55.60;;;;;;5052265;28;20522;-52
2021/10/28 05:50:49;;;;;;;16.63;11.33;;;12.20;55.30;;;;;;5048460;28;20189;-53
2021/10/28 05:53:16;;;;;;;14.73;11.43;;;12.30;55.20;;;;;;5049797;28;20192;-53
2021/10/28 05:55:42;;;;;;;17.30;12.00;;;12.40;54.80;;;;;;5043826;28;20242;-53
2021/10/28 05:58:08;;;;;;;15.13;12.10;;;12.40;54.80;;;;;;5036660;28;20420;-52
2021/10/28 06:00:34;;;;;;;15.40;12.07;;;12.30;54.50;;;;;;5044964;28;20917;-53
2021/10/28 06:03:00;;;;;;;15.87;13.20;;;12.30;54.60;;;;;;5041128;28;20197;-52
2021/10/28 06:05:25;;;;;;;16.37;12.50;;;12.30;54.50;;;;;;5048960;28;20232;-52
2021/10/28 06:07:51;;;;;;;16.20;13.10;;;12.20;54.50;;;;;;5052018;28;20929;-49
2021/10/28 06:10:18;;;;;;;14.93;11.57;;;12.10;54.50;;;;;;5050802;28;20720;-52
2021/10/28 06:12:48;;;;;;;14.83;11.60;;;12.10;54.70;;;;;;5042562;28;20207;-51
2021/10/28 06:15:15;;;;;;;16.20;11.37;;;12.10;54.70;;;;;;5043401;28;20471;-52
2021/10/28 06:20:17;;;;;;;16.67;12.17;;;12.20;54.70;;;;;;5050655;28;20496;-53
2021/10/28 06:22:43;;;;;;;15.50;11.67;;;12.20;54.50;;;;;;5034808;28;20451;-52
2021/10/28 06:25:09;;;;;;;15.87;11.87;;;12.20;54.40;;;;;;5042129;28;20468;-50
2021/10/28 06:27:35;;;;;;;15.63;12.20;;;12.20;54.50;;;;;;5051275;28;20633;-52
2021/10/28 06:30:01;;;;;;;15.07;11.30;;;12.20;54.80;;;;;;5046983;28;20515;-54
2021/10/28 06:32:26;;;;;;;16.00;11.03;;;12.30;55.50;;;;;;5048423;28;20196;-50
2021/10/28 06:34:52;;;;;;;17.93;13.70;;;12.40;55.60;;;;;;5039593;28;20193;-51
2021/10/28 06:37:18;;;;;;;17.67;12.67;;;12.50;55.40;;;;;;5048443;28;20248;-51
2021/10/28 06:39:44;;;;;;;18.60;12.37;;;12.60;55.20;;;;;;5040068;28;20866;-52
2021/10/28 06:42:12;;;;;;;13.43;10.63;;;12.60;55.00;;;;;;5044505;28;20659;-50
2021/10/28 06:44:38;;;;;;;14.33;11.17;;;12.70;55.20;;;;;;5040472;28;20440;-52
2021/10/28 06:47:06;;;;;;;17.60;12.43;;;12.60;55.80;;;;;;5045320;28;20578;-51
2021/10/28 06:49:34;;;;;;;13.87;11.70;;;12.70;56.10;;;;;;5043411;28;20526;-52
2021/10/28 06:52:01;;;;;;;17.10;11.73;;;12.90;55.40;;;;;;5034921;28;20897;-53
2021/10/28 06:54:32;;;;;;;14.17;10.83;;;13.00;55.00;;;;;;5037468;28;20521;-52
2021/10/28 07:04:40;;;;;;;13.10;11.13;;;13.00;54.60;;;;;;5046996;28;20435;-51
2021/10/28 07:07:06;;;;;;;16.20;12.60;;;13.10;54.70;;;;;;5038767;28;20435;-52
2021/10/28 07:14:46;;;;;;;14.70;11.90;;;13.50;53.70;;;;;;5046952;28;20207;-51
2021/10/28 07:22:47;;;;;;;17.83;12.70;;;14.00;53.00;;;;;;5042752;28;20192;-51
2021/10/28 08:14:16;;;;;;;15.47;12.63;;;14.90;56.20;;;;;;5040955;28;20543;-49
2021/10/28 08:30:24;;;;;;;14.60;12.27;;;14.60;59.40;;;;;;5041305;28;20945;-53
2021/10/28 08:32:50;;;;;;;15.10;11.80;;;14.50;60.10;;;;;;5045252;28;20439;-53
2021/10/28 08:35:16;;;;;;;10.60;8.77;;;14.60;59.80;;;;;;5046948;28;20904;-53
2021/10/28 08:37:50;;;;;;;9.63;8.40;;;14.50;60.40;;;;;;5043716;28;20618;-49
2021/10/28 08:40:16;;;;;;;8.73;6.80;;;14.70;62.40;;;;;;5040253;28;20926;-51
2021/10/28 08:42:43;;;;;;;12.07;9.50;;;15.20;62.20;;;;;;5051908;28;20431;-50
2021/10/28 08:45:13;;;;;;;12.90;8.73;;;15.70;59.40;;;;;;5047902;28;21943;-49
2021/10/28 08:47:56;;;;;;;9.77;6.57;;;16.10;58.60;;;;;;5034875;28;20530;-49
2021/10/28 09:25:25;;;;;;;6.47;5.87;;;20.00;48.90;;;;;;5037056;28;20479;-51
2021/10/28 09:28:14;;;;;;;8.87;7.97;;;20.20;48.20;;;;;;5045259;28;20444;-52
2021/10/28 09:30:57;;;;;;;8.93;8.10;;;20.30;47.80;;;;;;5041141;28;20796;-53
2021/10/28 09:45:19;;;;;;;9.13;8.23;;;21.00;46.20;;;;;;5038950;28;20479;-53
2021/10/28 09:50:34;;;;;;;12.47;11.20;;;20.60;46.30;;;;;;5053516;28;20439;-49
2021/10/28 09:58:43;;;;;;;11.00;9.90;;;20.90;46.50;;;;;;5043583;28;20431;-53
2021/10/28 10:01:38;;;;;;;9.80;8.80;;;21.00;46.30;;;;;;5041927;28;20439;-52
2021/10/28 10:04:08;;;;;;;14.77;13.23;;;21.20;46.10;;;;;;5039506;28;21223;-53
2021/10/28 10:06:40;;;;;;;17.87;13.23;;;21.40;44.40;;;;;;5059446;28;20488;-52
2021/10/28 10:09:06;;;;;;;16.37;14.67;;;21.40;44.70;;;;;;5042470;28;20449;-51
2021/10/28 10:11:33;;;;;;;15.37;13.87;;;21.50;44.20;;;;;;5033835;28;20923;-53
2021/10/28 10:14:00;;;;;;;14.63;12.40;;;21.30;43.10;;;;;;5035969;28;21052;-52
2021/10/28 10:16:28;;;;;;;16.47;14.53;;;21.20;44.00;;;;;;5042904;28;20443;-49
2021/10/28 10:18:54;;;;;;;16.70;15.00;;;21.00;43.80;;;;;;5046464;28;20506;-52
2021/10/28 10:21:34;;;;;;;12.17;10.90;;;21.00;44.20;;;;;;5034640;28;20517;-50
2021/10/28 12:23:14;;;;;;;11.60;10.40;;;23.70;40.80;;;;;;5049814;28;20793;-51
2021/10/28 12:28:37;;;;;;;14.53;10.03;;;23.70;39.90;;;;;;5048946;28;20435;-49
2021/10/28 12:44:55;;;;;;;11.90;9.73;;;24.50;39.70;;;;;;5044897;28;20474;-49
2021/10/28 12:50:42;;;;;;;11.13;9.93;;;24.70;40.20;;;;;;5044146;28;20526;-47
2021/10/28 12:56:11;;;;;;;11.30;10.20;;;24.90;38.90;;;;;;5034059;28;20436;-47
2021/10/28 13:05:00;;;;;;;11.87;10.70;;;25.20;38.60;;;;;;5052375;28;20439;-49
2021/10/28 13:07:22;;;;;;;11.50;10.43;;;25.00;38.40;;;;;;5060099;28;20490;-51
2021/10/28 13:48:27;;;;;;;11.10;10.00;;;26.00;37.20;;;;;;5051968;28;20491;-49
2021/10/28 13:51:11;;;;;;;10.07;8.97;;;26.10;36.90;;;;;;5045700;28;20441;-50
2021/10/28 13:57:34;;;;;;;11.90;10.40;;;26.10;37.00;;;;;;5008108;28;20441;-48
2021/10/28 14:18:53;;;;;;;9.90;9.00;;;26.40;35.80;;;;;;5044759;28;20458;-51
2021/10/28 15:29:21;;;;;;;7.80;7.00;;;26.10;37.60;;;;;;5037634;28;21154;-49
2021/10/28 15:37:14;;;;;;;9.80;8.20;;;25.80;38.20;;;;;;5051210;28;20474;-53
2021/10/28 15:43:08;;;;;;;10.00;9.00;;;25.70;38.60;;;;;;5030824;28;20931;-49
2021/10/28 15:53:54;;;;;;;13.23;11.50;;;25.30;39.30;;;;;;5048291;28;20903;-52
2021/10/28 15:59:39;;;;;;;11.47;10.43;;;25.00;39.30;;;;;;5042311;28;20431;-51
2021/10/28 16:22:55;;;;;;;9.10;6.63;;;23.70;41.70;;;;;;5043329;28;20443;-48
2021/10/28 16:25:21;;;;;;;7.83;6.20;;;23.60;41.70;;;;;;5069637;28;20481;-48
2021/10/28 16:27:47;;;;;;;6.90;6.00;;;23.50;41.90;;;;;;5048188;28;20432;-47
2021/10/28 16:30:13;;;;;;;11.00;6.70;;;23.40;41.90;;;;;;5039540;28;20439;-46
2021/10/28 16:32:39;;;;;;;8.00;6.50;;;23.30;42.10;;;;;;5047161;28;20200;-51
2021/10/28 16:35:07;;;;;;;6.63;6.03;;;23.20;42.20;;;;;;5038816;28;20197;-48
2021/10/28 16:37:34;;;;;;;7.23;6.53;;;23.20;42.40;;;;;;5049000;28;20427;-49
2021/10/28 16:40:00;;;;;;;8.70;7.07;;;23.10;42.50;;;;;;5049190;28;20573;-49
2021/10/28 16:42:26;;;;;;;8.80;5.70;;;23.00;42.60;;;;;;5049973;28;20887;-49
2021/10/28 16:44:51;;;;;;;10.57;7.60;;;22.90;42.80;;;;;;5044303;28;20190;-48
2021/10/28 16:47:17;;;;;;;6.80;6.10;;;22.80;42.90;;;;;;5043103;28;20252;-49
2021/10/28 16:49:42;;;;;;;9.53;7.17;;;22.80;43.10;;;;;;5048547;28;20279;-51
2021/10/28 16:52:08;;;;;;;10.40;7.60;;;22.70;43.00;;;;;;5049329;28;20192;-47
2021/10/28 16:54:34;;;;;;;11.53;7.60;;;22.60;43.20;;;;;;5043111;28;20189;-51
2021/10/28 16:57:00;;;;;;;10.40;7.47;;;22.50;43.20;;;;;;5052156;28;20554;-51
2021/10/28 16:59:26;;;;;;;9.23;7.93;;;22.50;43.30;;;;;;5049362;28;20200;-47
2021/10/28 17:01:53;;;;;;;10.00;7.87;;;22.40;43.40;;;;;;5049705;28;20427;-49
2021/10/28 17:04:19;;;;;;;8.33;7.47;;;22.30;43.50;;;;;;5048808;28;20196;-52
2021/10/28 17:06:46;;;;;;;10.50;7.83;;;22.20;43.60;;;;;;5047714;28;20490;-47
2021/10/28 17:09:12;;;;;;;8.43;7.73;;;22.10;43.70;;;;;;5048410;28;20525;-50
2021/10/28 17:11:39;;;;;;;11.00;9.90;;;22.10;44.00;;;;;;5045632;28;20538;-52
2021/10/28 17:14:07;;;;;;;9.57;8.57;;;22.00;44.10;;;;;;5048179;28;20189;-46
2021/10/28 17:16:35;;;;;;;9.43;8.50;;;21.90;44.20;;;;;;5042330;28;20424;-48
2021/10/28 17:19:01;;;;;;;10.40;8.33;;;21.80;44.20;;;;;;5051025;28;20506;-49
2021/10/28 17:21:28;;;;;;;11.40;8.13;;;21.80;44.30;;;;;;5048968;28;20588;-47
2021/10/28 17:24:02;;;;;;;9.30;7.50;;;21.70;44.40;;;;;;5045738;28;20458;-49
2021/10/28 17:26:29;;;;;;;7.93;6.93;;;21.60;44.50;;;;;;5045277;28;20479;-47
2021/10/28 17:28:59;;;;;;;8.43;7.57;;;21.50;44.60;;;;;;5049816;28;20419;-47
2021/10/28 17:31:27;;;;;;;8.97;8.00;;;21.40;44.80;;;;;;5048091;28;20524;-48
2021/10/28 17:33:53;;;;;;;10.00;8.20;;;21.30;44.80;;;;;;5040788;28;20432;-51
2021/10/28 17:36:19;;;;;;;20.90;12.33;;;21.20;44.90;;;;;;5040056;28;20529;-47
2021/10/28 17:38:44;;;;;;;21.00;12.23;;;21.20;45.00;;;;;;5043897;28;20773;-48
2021/10/28 17:41:10;;;;;;;9.73;7.53;;;21.10;45.10;;;;;;5047604;28;20192;-47
2021/10/28 17:43:42;;;;;;;13.20;8.63;;;21.10;45.20;;;;;;5048262;28;20648;-49
2021/10/28 17:46:08;;;;;;;8.50;7.40;;;21.00;45.20;;;;;;5042769;28;20231;-47
2021/10/28 17:48:34;;;;;;;9.97;6.93;;;20.90;45.20;;;;;;5045862;28;20839;-47
2021/10/28 17:51:00;;;;;;;7.90;7.10;;;20.90;45.30;;;;;;5044624;28;20500;-47
2021/10/28 17:53:25;;;;;;;9.10;8.20;;;20.80;45.40;;;;;;5045279;28;20204;-49
2021/10/28 17:55:51;;;;;;;7.83;6.97;;;20.70;45.60;;;;;;5040984;28;20446;-47
2021/10/28 17:58:17;;;;;;;7.73;6.23;;;20.60;45.70;;;;;;5044316;28;20730;-48
2021/10/28 18:00:42;;;;;;;9.07;7.63;;;20.60;45.80;;;;;;5054543;28;20189;-48
2021/10/28 18:03:09;;;;;;;8.60;6.90;;;20.50;46.00;;;;;;5049422;28;20251;-47
2021/10/28 18:05:36;;;;;;;7.90;7.10;;;20.50;46.20;;;;;;5037812;28;20292;-47
2021/10/28 18:08:03;;;;;;;7.80;7.00;;;20.40;46.20;;;;;;5055393;28;20492;-47
2021/10/28 18:10:28;;;;;;;7.30;6.60;;;20.50;46.30;;;;;;5051695;28;20501;-47
2021/10/28 18:12:55;;;;;;;6.67;5.93;;;20.40;46.10;;;;;;5045715;28;20827;-48
2021/10/28 18:15:22;;;;;;;8.57;6.93;;;20.40;46.20;;;;;;5040707;28;20250;-50
2021/10/28 18:17:48;;;;;;;8.30;7.03;;;20.30;46.40;;;;;;5045351;28;20471;-47
2021/10/28 18:20:14;;;;;;;12.30;6.83;;;20.30;46.40;;;;;;5045789;28;20501;-47
2021/10/28 18:22:42;;;;;;;7.30;6.60;;;20.30;46.40;;;;;;5046840;28;20197;-47
2021/10/28 18:25:10;;;;;;;9.30;7.90;;;20.20;46.30;;;;;;5042592;28;20276;-47
2021/10/28 18:27:39;;;;;;;9.03;7.13;;;20.20;46.40;;;;;;5047940;28;20542;-48
2021/10/28 18:30:06;;;;;;;7.70;6.90;;;20.10;46.30;;;;;;5045807;28;22319;-49
2021/10/28 18:32:32;;;;;;;10.80;6.77;;;20.10;46.40;;;;;;5043615;28;20464;-48
2021/10/28 18:34:57;;;;;;;12.83;7.83;;;20.00;46.40;;;;;;5048415;28;20957;-47
2021/10/28 18:37:23;;;;;;;7.80;6.97;;;20.00;46.50;;;;;;5050299;28;20192;-47
2021/10/28 18:39:51;;;;;;;8.70;6.63;;;19.90;46.50;;;;;;5047868;28;20249;-47
2021/10/28 18:42:17;;;;;;;7.67;6.90;;;19.90;46.60;;;;;;5045938;28;20196;-47
2021/10/28 18:44:43;;;;;;;7.27;6.57;;;19.90;46.60;;;;;;5050795;28;20470;-48
2021/10/28 18:47:09;;;;;;;9.53;6.80;;;19.90;46.60;;;;;;5046562;28;20494;-46
2021/10/28 18:49:35;;;;;;;7.03;6.33;;;19.80;46.50;;;;;;5043619;28;20209;-47
2021/10/28 18:52:01;;;;;;;8.27;7.10;;;19.70;46.60;;;;;;5044972;28;20466;-48
2021/10/28 18:54:27;;;;;;;7.90;7.10;;;19.60;46.80;;;;;;5047795;28;20442;-47
2021/10/28 18:56:52;;;;;;;7.77;6.97;;;19.40;47.40;;;;;;5046725;28;20201;-48
2021/10/28 18:59:18;;;;;;;8.63;6.90;;;19.30;47.60;;;;;;5046856;28;20196;-47
2021/10/28 19:01:48;;;;;;;7.33;6.50;;;19.10;47.90;;;;;;5040400;28;20204;-47
2021/10/28 19:04:14;;;;;;;9.27;7.27;;;19.00;48.20;;;;;;5046543;28;20500;-46
2021/10/28 19:06:40;;;;;;;8.80;7.90;;;19.10;48.20;;;;;;5036736;28;20491;-47
2021/10/28 19:09:07;;;;;;;9.80;8.90;;;19.10;48.20;;;;;;5035760;28;20188;-47
2021/10/28 19:11:32;;;;;;;9.67;8.67;;;19.10;48.00;;;;;;5044164;28;20802;-47
2021/10/28 19:13:58;;;;;;;9.77;8.23;;;19.00;47.90;;;;;;5046029;28;20443;-47
2021/10/28 19:16:24;;;;;;;8.20;7.40;;;19.00;47.80;;;;;;5042342;28;20193;-47
2021/10/28 19:18:50;;;;;;;8.80;7.90;;;19.00;47.70;;;;;;5043207;28;20233;-49
2021/10/28 19:21:16;;;;;;;9.20;8.30;;;19.00;47.70;;;;;;5038345;28;20436;-46
2021/10/28 19:23:42;;;;;;;8.83;8.00;;;19.00;47.50;;;;;;5049002;28;20961;-48
2021/10/28 19:26:09;;;;;;;9.87;8.77;;;19.00;47.60;;;;;;5045109;28;20224;-47
2021/10/28 19:28:35;;;;;;;9.77;8.60;;;19.00;47.70;;;;;;5049334;28;20438;-47
2021/10/28 19:31:08;;;;;;;9.73;8.83;;;18.90;47.60;;;;;;5047753;28;20449;-47
2021/10/28 19:33:47;;;;;;;9.43;8.50;;;18.80;47.50;;;;;;5033617;28;20815;-49
2021/10/28 19:37:00;;;;;;;10.40;9.30;;;18.50;48.30;;;;;;5044250;28;20438;-48
2021/10/28 19:41:58;;;;;;;28.27;18.73;;;17.60;50.20;;;;;;5045748;28;20946;-47
2021/10/28 19:47:13;;;;;;;9.03;7.80;;;16.50;53.20;;;;;;5041333;28;20501;-49
2021/10/28 19:49:39;;;;;;;9.90;8.37;;;16.40;53.60;;;;;;5037622;28;20439;-48
2021/10/28 19:52:07;;;;;;;10.70;9.20;;;16.50;54.40;;;;;;5043142;28;20462;-51
2021/10/28 19:54:36;;;;;;;11.67;9.70;;;16.60;54.50;;;;;;5040125;28;20431;-49
2021/10/28 19:57:02;;;;;;;15.03;11.20;;;16.50;54.00;;;;;;5044841;28;20847;-51
2021/10/28 19:59:32;;;;;;;12.47;10.40;;;16.60;54.00;;;;;;5047115;28;20478;-47
2021/10/28 20:02:03;;;;;;;9.10;7.70;;;16.60;53.60;;;;;;5049428;28;20686;-48
2021/10/28 20:04:35;;;;;;;13.13;8.60;;;16.40;54.50;;;;;;5045794;28;20444;-52
2021/10/28 20:20:32;;;;;;;11.70;9.47;;;16.20;55.00;;;;;;5048150;28;20532;-51
2021/10/28 20:22:58;;;;;;;10.13;8.73;;;16.30;54.30;;;;;;5038778;28;20435;-49
2021/10/28 20:25:27;;;;;;;10.50;9.17;;;16.30;53.50;;;;;;5049231;28;20432;-50
2021/10/28 20:27:55;;;;;;;10.90;9.77;;;16.40;53.10;;;;;;5052671;28;20433;-51
2021/10/28 20:30:30;;;;;;;10.93;9.70;;;16.40;53.10;;;;;;5050822;28;20447;-46
2021/10/28 20:32:57;;;;;;;10.50;9.43;;;16.40;53.00;;;;;;5042062;28;20530;-49
2021/10/28 20:37:49;;;;;;;12.33;9.40;;;16.40;52.90;;;;;;5040334;28;20871;-47
2021/10/28 20:40:16;;;;;;;8.97;7.80;;;16.40;53.00;;;;;;5045271;28;20954;-47
2021/10/28 20:42:47;;;;;;;10.37;9.10;;;16.30;53.20;;;;;;5042383;28;20518;-47
2021/10/28 20:45:18;;;;;;;9.40;8.40;;;16.30;53.60;;;;;;5050916;28;20555;-46
2021/10/28 20:47:46;;;;;;;9.83;8.83;;;16.20;53.60;;;;;;5051949;28;20647;-46
2021/10/28 20:50:14;;;;;;;9.67;8.30;;;15.80;54.70;;;;;;5051942;28;20438;-47
2021/10/28 20:52:40;;;;;;;11.13;8.03;;;15.70;55.30;;;;;;5052377;28;20443;-47
2021/10/28 20:55:06;;;;;;;9.37;8.33;;;15.40;55.80;;;;;;5051815;28;20446;-46
2021/10/28 20:57:33;;;;;;;9.87;8.87;;;15.20;56.60;;;;;;5049764;28;20443;-49
2021/10/28 20:59:58;;;;;;;14.60;10.30;;;15.00;57.60;;;;;;5052734;28;20470;-46
2021/10/28 21:02:24;;;;;;;10.07;8.43;;;14.90;57.90;;;;;;5048990;28;20882;-48
2021/10/28 21:04:50;;;;;;;10.10;9.03;;;14.90;57.90;;;;;;5040716;28;20545;-48
2021/10/28 21:07:16;;;;;;;12.30;9.33;;;14.80;58.30;;;;;;5071366;28;20220;-47
2021/10/28 21:09:41;;;;;;;12.20;9.93;;;14.90;58.00;;;;;;5041163;28;20501;-46
2021/10/28 21:12:07;;;;;;;13.57;9.90;;;14.70;58.40;;;;;;5044520;28;20193;-47
2021/10/28 21:14:33;;;;;;;10.97;9.30;;;14.60;58.70;;;;;;5055026;28;20250;-47
2021/10/28 21:16:59;;;;;;;16.00;11.87;;;14.40;59.30;;;;;;5044638;28;20938;-47
2021/10/28 21:19:24;;;;;;;13.67;11.37;;;14.20;59.90;;;;;;5056541;28;20228;-47
2021/10/28 21:21:51;;;;;;;17.17;11.93;;;14.30;60.40;;;;;;5039608;28;20243;-47
2021/10/28 21:24:18;;;;;;;12.73;10.03;;;14.50;59.50;;;;;;5036103;28;20236;-47
2021/10/28 21:26:44;;;;;;;11.10;9.20;;;14.90;58.70;;;;;;5041971;28;20490;-47
2021/10/28 21:29:10;;;;;;;14.60;11.33;;;14.90;58.10;;;;;;5038434;28;20436;-48
2021/10/28 21:31:36;;;;;;;13.00;11.07;;;14.90;58.20;;;;;;5038807;28;20207;-48
2021/10/28 21:34:02;;;;;;;11.90;10.00;;;14.90;58.40;;;;;;5045988;28;20929;-47
2021/10/28 21:36:28;;;;;;;15.80;12.07;;;14.90;58.40;;;;;;5049007;28;20201;-50
2021/10/28 21:38:54;;;;;;;10.93;9.17;;;14.90;58.30;;;;;;5048446;28;20454;-48
2021/10/28 21:41:20;;;;;;;12.47;10.80;;;14.90;58.40;;;;;;5054664;28;20556;-48
2021/10/28 21:43:49;;;;;;;14.83;10.20;;;15.00;58.20;;;;;;5048631;28;20597;-46
2021/10/28 21:46:15;;;;;;;12.70;9.60;;;14.80;57.90;;;;;;5041085;28;20483;-46